• Join FlightAware (Why Join?)
  • Login
  • US Flag 
12:09PM EDT


 

Airport Tracker/Info


-or-


 

Live Flight TrackerFlight Track Log ✈ DAL3676 ✈ 07-Apr-2013 ✈ KHSV - KDTW

Flight Track Log - Related Links

Times and Time Zones

All times are in EDT time to prevent confusion due to time zone crossing. See the DAL3676 flight status page for this flight to view local times or setup timezone preferences in your user account.

Time Position Orientation Groundspeed Altitude Reporting Facility
EDT Latitude Longitude Course Direction KTS MPH feet Rate Location/Type
07:09PM 34.5725 -86.7328 North 213 245 4,300  Level Memphis Center
07:10PM 34.6272 -86.6772 40° Northeast 192 221 6,500 2,580 Climbing Memphis Center
07:11PM 34.7106 -86.6761 North 208 239 9,500 2,280 Climbing Memphis Center
07:12PM 34.7942 -86.6775 359° North 256 295 11,100 1,320 Climbing Memphis Center
07:13PM 34.8922 -86.6783 360° North 299 344 12,200 1,260 Climbing Memphis Center
07:14PM 35.2641 -86.7269 North  Level FlightAware Approximate
07:14PM 34.9944 -86.6792 360° North 344 396 13,700  Level Memphis Center
07:15PM 35.1008 -86.6819 359° North 370 426 15,200 1,500 Climbing Memphis Center
07:16PM 35.2092 -86.6772 North 383 441 16,700 1,380 Climbing Memphis Center
07:17PM 35.3178 -86.6775 360° North 388 447 18,000 1,140 Climbing Memphis Center
07:18PM 35.4303 -86.6775 360° North 388 447 19,000 960 Climbing Memphis Center
07:19PM 35.5453 -86.6803 359° North 398 458 20,000 960 Climbing Memphis Center
07:20PM 35.6619 -86.6800 360° North 405 466 21,000 1,020 Climbing Memphis Center
07:21PM 35.7767 -86.6800 360° North 405 466 22,100 1,020 Climbing Memphis Center
07:22PM 35.8914 -86.6828 359° North 405 466 23,100 960 Climbing Memphis Center
07:23PM 35.9956 -86.6831 360° North 405 466 24,100 900 Climbing Memphis Center
07:24PM 36.1225 -86.6722 North 405 466 24,900 600 Climbing Memphis Center
07:25PM 36.2411 -86.6617 North 410 472 25,400 480 Climbing Memphis Center
07:26PM 36.3617 -86.6536 North 426 490 25,900 480 Climbing Memphis Center
07:27PM 36.4864 -86.6428 North 438 504 26,400 480 Climbing Memphis Center
07:28PM 36.6072 -86.6347 North 438 504 26,900 480 Climbing Memphis Center
07:29PM 36.7256 -86.6267 North 438 504 27,400 420 Climbing Memphis Center
07:30PM 36.8358 -86.6164 North 438 504 27,800 420 Climbing Memphis Center
07:31PM 36.9544 -86.6083 North 438 504 28,300 360 Climbing Memphis Center
07:33PM 37.1947 -86.5867 North 436 502 29,000 180 Climbing Indianapolis Center
07:34PM 37.3206 -86.5783 North 446 513 29,000  Level Indianapolis Center
07:35PM 37.4694 -86.5631 North 456 525 29,000 300 Level Indianapolis Center
07:36PM 37.5942 -86.5208 15° North 459 528 29,700 540 Climbing Indianapolis Center
07:37PM 37.7169 -86.4750 16° North 458 527 30,200 480 Climbing Indianapolis Center
07:38PM 37.8347 -86.4308 16° North 453 521 30,700 360 Climbing Indianapolis Center
07:39PM 37.9547 -86.3867 16° North 449 517 31,000 120 Climbing Indianapolis Center
07:40PM 38.0753 -86.3403 17° North 454 522 31,000  Level Indianapolis Center
07:41PM 38.1983 -86.2936 17° North 461 531 31,000  Level Indianapolis Center
07:42PM 38.3481 -86.2353 17° North 468 539 31,000  Level Indianapolis Center
07:43PM 38.4733 -86.1894 16° North 470 541 31,000  Level Indianapolis Center
07:44PM 38.5986 -86.1406 17° North 471 542 31,000  Level Indianapolis Center
07:45PM 38.7250 -86.0908 17° North 474 545 31,000  Level Indianapolis Center
07:46PM 38.8514 -86.0433 16° North 473 544 31,000  Level Indianapolis Center
07:47PM 38.9911 -85.9883 17° North 463 533 31,000  Level Indianapolis Center
07:48PM 39.1153 -85.9383 17° North 463 533 31,000  Level Indianapolis Center
07:49PM 39.2372 -85.8906 17° North 458 527 31,000  Level Indianapolis Center
07:50PM 39.3581 -85.8431 17° North 453 521 31,000  Level Indianapolis Center
07:51PM 39.4786 -85.7964 17° North 452 520 31,000  Level Indianapolis Center
07:52PM 39.5983 -85.7489 17° North 450 518 31,000  Level Indianapolis Center
07:53PM 39.7194 -85.7000 17° North 452 520 31,000  Level Indianapolis Center
07:54PM 39.8575 -85.6744 North 433 498 31,000  Level Indianapolis Center
07:55PM 39.9708 -85.7044 349° North 416 479 31,000  Level Indianapolis Center
07:56PM 40.0892 -85.6803 North 451 519 31,000  Level Indianapolis Center
07:57PM 40.1281 -85.6583 23° Northeast 455 524 31,000  Level Chicago Center
07:58PM 40.2475 -85.5931 23° Northeast 460 529 31,000  Level Chicago Center
07:59PM 40.3675 -85.5272 23° Northeast 463 533 31,000 -180 Level Chicago Center
08:00PM 40.4881 -85.4625 22° Northeast 466 536 30,700 -1,560 Descending Chicago Center
08:01PM 40.6275 -85.3833 23° Northeast 466 536 27,800 -2,400 Descending Chicago Center
08:02PM 40.7283 -85.3281 23° Northeast 458 527 25,800 -2,400 Descending Chicago Center
08:03PM 40.8647 -85.2494 24° Northeast 449 517 22,900 -2,340 Descending Chicago Center
08:04PM 40.9725 -85.1883 23° Northeast 430 495 21,000 -960 Descending Chicago Center
08:05PM 41.0669 -85.0922 37° Northeast 426 490 21,000  Level Chicago Center
08:06PM 41.1594 -84.9931 39° Northeast 430 495 21,000  Level Chicago Center
08:07PM 41.2533 -84.8931 39° Northeast 434 499 21,000  Level Chicago Center
08:08PM 41.3631 -84.7756 39° Northeast 427 491 21,000 -540 Level Chicago Center
08:09PM 41.4675 -84.7186 22° Northeast 415 478 20,000 -1,020 Descending Chicago Center
08:10PM 41.5697 -84.6756 17° North 396 456 19,000 -840 Descending Chicago Center
08:11PM 41.6278 -84.6283 31° Northeast 388 447 18,700 -840 Descending Cleveland Center
08:12PM 41.7186 -84.5422 35° Northeast 388 447 17,800 -840 Descending Cleveland Center
08:13PM 41.7750 -84.4147 59° Northeast 387 445 17,100 -900 Descending Cleveland Center
08:13PM 41.7794 -84.3425 85° East 413 475 16,500 -1,740 Descending Cleveland Center
08:14PM 41.7925 -84.2653 77° East 374 430 15,400 -2,160 Descending Cleveland Center
08:14PM 41.8028 -84.1989 78° East 385 443 14,300 -1,920 Descending Cleveland Center
08:15PM 41.8089 -84.1436 82° East 374 430 13,500 -2,220 Descending Cleveland Center
08:15PM 41.8217 -84.0608 78° East 374 430 12,100 -1,440 Descending Cleveland Center
08:16PM 41.8417 -84.0228 55° Northeast 364 419 12,100  Level Cleveland Center
08:16PM 41.8806 -83.9747 43° Northeast 271 312 12,100 -120 Level Cleveland Center
08:17PM 41.8981 -83.9478 49° Northeast 306 352 12,000  Descending Cleveland Center
08:17PM 41.9347 -83.9022 43° Northeast 271 312 12,100  Climbing Cleveland Center
08:18PM 41.9503 -83.8778 49° Northeast 278 320 12,000  Descending Cleveland Center
08:18PM 41.9892 -83.8294 43° Northeast 267 307 12,100 60 Climbing Cleveland Center
08:19PM 42.0044 -83.8053 50° Northeast 272 313 12,100 -120 Level Cleveland Center
08:19PM 42.0411 -83.7567 45° Northeast 280 322 12,000 -120 Descending Cleveland Center
08:20PM 42.0564 -83.7294 53° Northeast 272 313 12,000 60 Level Cleveland Center
08:20PM 42.0975 -83.6728 46° Northeast 249 287 12,100  Climbing Cleveland Center
08:21PM 42.1042 -83.6619 50° Northeast 261 300 12,000 -120 Descending Cleveland Center
08:22PM 42.1519 -83.5942 46° Northeast 256 295 12,000 60 Level Cleveland Center
08:22PM 42.1964 -83.5597 30° Northeast 237 273 12,100 -480 Climbing Cleveland Center
08:23PM 42.2561 -83.5147 29° Northeast 245 282 11,200 -1,320 Descending Cleveland Center
08:24PM 42.3197 -83.4700 27° Northeast 215 247 9,300 -1,680 Descending Cleveland Center
08:25PM 42.3728 -83.4331 27° Northeast 215 247 7,600 -1,080 Descending Cleveland Center
08:26PM 42.4258 -83.3989 25° Northeast 210 242 7,100 -1,020 Descending Cleveland Center
08:27PM 42.4808 -83.3647 25° Northeast 211 243 5,600 -1,320 Descending Cleveland Center
08:28PM 42.4844 -83.2975 86° East 202 232 4,600 -1,140 Descending Cleveland Center